createdAt,value
2019-05-11T00:00:47.322Z,41.27
2019-05-11T00:03:17.026Z,42.87
2019-05-11T00:05:49.865Z,41.73
2019-05-11T00:08:19.651Z,39.97
2019-05-11T00:10:49.311Z,41.90
2019-05-11T00:13:19.043Z,40.73
2019-05-11T00:15:48.799Z,40.73
2019-05-11T00:18:18.504Z,37.27
2019-05-11T00:20:48.196Z,36.63
2019-05-11T00:23:17.947Z,36.63
2019-05-11T00:25:47.653Z,37.30
2019-05-11T00:28:17.331Z,36.63
2019-05-11T00:30:47.097Z,36.43
2019-05-11T00:33:16.785Z,38.97
2019-05-11T00:35:46.505Z,39.23
2019-05-11T00:38:16.252Z,40.10
2019-05-11T00:40:45.980Z,39.27
2019-05-11T00:43:15.689Z,39.33
2019-05-11T00:45:45.455Z,40.23
2019-05-11T00:48:15.200Z,39.03
2019-05-11T00:50:45.932Z,38.53
2019-05-11T00:53:15.660Z,40.83
2019-05-11T00:55:45.493Z,38.33
2019-05-11T00:58:15.178Z,37.53
2019-05-11T01:00:44.987Z,38.43
2019-05-11T01:03:14.670Z,37.30
2019-05-11T01:05:44.605Z,35.97
2019-05-11T01:08:14.435Z,36.37
2019-05-11T01:10:44.154Z,37.73
2019-05-11T01:13:13.864Z,35.23
2019-05-11T01:15:43.591Z,36.23
2019-05-11T01:18:13.302Z,35.30
2019-05-11T01:20:43.011Z,35.10
2019-05-11T01:23:12.735Z,36.37
2019-05-11T01:25:42.503Z,34.73
2019-05-11T01:28:12.158Z,35.40
2019-05-11T01:30:41.906Z,36.07
2019-05-11T01:33:11.632Z,36.37
2019-05-11T01:35:41.394Z,36.77
2019-05-11T01:38:11.094Z,36.27
2019-05-11T01:40:40.784Z,35.07
2019-05-11T01:43:10.501Z,35.83
2019-05-11T01:45:40.185Z,35.57
2019-05-11T01:48:10.419Z,35.40
2019-05-11T01:50:40.103Z,35.13
2019-05-11T01:53:09.798Z,35.50
2019-05-11T01:55:39.509Z,35.07
2019-05-11T01:58:09.212Z,34.87
2019-05-11T02:00:38.937Z,35.97
2019-05-11T02:03:08.645Z,35.60
2019-05-11T02:05:38.380Z,36.43
2019-05-11T02:08:08.105Z,35.73
2019-05-11T02:10:37.857Z,34.97
2019-05-11T02:13:07.577Z,36.33
2019-05-11T02:15:37.301Z,35.60
2019-05-11T02:18:07.072Z,37.17
2019-05-11T02:20:36.770Z,34.90
2019-05-11T02:23:06.541Z,36.53
2019-05-11T02:25:36.309Z,36.80
2019-05-11T02:28:06.012Z,38.13
2019-05-11T02:30:35.724Z,37.53
2019-05-11T02:33:05.449Z,36.90
2019-05-11T02:35:35.663Z,36.40
2019-05-11T02:38:05.344Z,34.37
2019-05-11T02:40:35.117Z,35.77
2019-05-11T02:43:04.805Z,35.47
2019-05-11T02:45:42.715Z,34.43
2019-05-11T02:48:12.568Z,35.23
2019-05-11T02:50:43.162Z,34.77
2019-05-11T02:53:12.900Z,35.57
2019-05-11T02:55:42.590Z,35.50
2019-05-11T02:58:12.272Z,35.73
2019-05-11T03:00:43.831Z,35.20
2019-05-11T03:03:13.806Z,34.40
2019-05-11T03:05:43.574Z,34.63
2019-05-11T03:08:13.264Z,31.30
2019-05-11T03:10:42.994Z,29.40
2019-05-11T03:13:12.747Z,27.03
2019-05-11T03:15:42.450Z,26.70
2019-05-11T03:18:12.285Z,23.80
2019-05-11T03:20:41.990Z,23.97
2019-05-11T03:23:11.741Z,22.30
2019-05-11T03:25:41.439Z,22.10
2019-05-11T03:28:11.170Z,22.10
2019-05-11T03:30:41.064Z,21.53
2019-05-11T03:33:11.097Z,21.60
2019-05-11T03:35:40.852Z,21.47
2019-05-11T03:38:10.607Z,21.40
2019-05-11T03:40:40.337Z,20.37
2019-05-11T03:43:10.047Z,20.33
2019-05-11T03:45:39.787Z,20.77
2019-05-11T03:48:09.465Z,19.47
2019-05-11T03:50:39.235Z,19.27
2019-05-11T03:53:08.927Z,19.53
2019-05-11T03:55:38.644Z,20.20
2019-05-11T03:58:08.370Z,19.40
2019-05-11T04:00:38.135Z,19.53
2019-05-11T04:03:07.849Z,19.93
2019-05-11T04:05:37.559Z,20.20
2019-05-11T04:08:07.218Z,19.67
2019-05-11T04:10:36.966Z,18.10
2019-05-11T04:13:08.515Z,17.63
2019-05-11T04:15:38.256Z,18.47
2019-05-11T04:18:07.961Z,18.20
2019-05-11T04:20:38.979Z,18.40
2019-05-11T04:23:08.720Z,16.33
2019-05-11T04:25:38.487Z,17.67
2019-05-11T04:28:08.193Z,16.43
2019-05-11T04:30:37.986Z,17.13
2019-05-11T04:33:07.705Z,16.13
2019-05-11T04:35:37.396Z,16.30
2019-05-11T04:38:07.115Z,16.57
2019-05-11T04:40:36.853Z,16.53
2019-05-11T04:43:06.611Z,16.43
2019-05-11T04:45:36.285Z,17.13
2019-05-11T04:48:06.110Z,16.70
2019-05-11T04:50:35.809Z,16.77
2019-05-11T04:53:05.572Z,17.10
2019-05-11T04:55:35.351Z,16.83
2019-05-11T04:58:05.120Z,15.97
2019-05-11T05:00:34.851Z,16.77
2019-05-11T05:03:05.774Z,15.63
2019-05-11T05:05:35.459Z,15.57
2019-05-11T05:08:09.534Z,15.47
2019-05-11T05:10:36.561Z,14.80
2019-05-11T05:13:10.930Z,15.23
2019-05-11T05:15:41.164Z,15.67
2019-05-11T05:18:10.926Z,15.57
2019-05-11T05:20:43.687Z,16.20
2019-05-11T05:23:13.724Z,15.20
2019-05-11T05:25:43.868Z,14.80
2019-05-11T05:28:13.631Z,13.17
2019-05-11T05:30:43.361Z,15.20
2019-05-11T05:33:13.094Z,14.07
2019-05-11T05:35:42.836Z,13.17
2019-05-11T05:38:12.595Z,13.60
2019-05-11T05:40:42.299Z,12.80
2019-05-11T05:43:26.426Z,13.07
2019-05-11T05:45:45.752Z,12.47
2019-05-11T05:48:15.489Z,12.90
2019-05-11T05:50:45.986Z,12.57
2019-05-11T05:53:15.665Z,13.67
2019-05-11T05:55:45.441Z,14.30
2019-05-11T05:58:15.142Z,12.33
2019-05-11T06:00:44.903Z,12.97
2019-05-11T06:03:14.625Z,13.17
2019-05-11T06:05:44.383Z,12.80
2019-05-11T06:08:17.058Z,12.73
2019-05-11T06:10:46.773Z,12.67
2019-05-11T06:13:16.518Z,13.40
2019-05-11T06:15:46.308Z,13.47
2019-05-11T06:18:16.166Z,13.53
2019-05-11T06:20:45.876Z,13.83
2019-05-11T06:23:15.610Z,15.67
2019-05-11T06:25:45.363Z,14.60
2019-05-11T06:28:15.185Z,15.77
2019-05-11T06:30:46.250Z,16.10
2019-05-11T06:33:18.466Z,16.93
2019-05-11T06:35:48.229Z,16.47
2019-05-11T06:38:18.049Z,16.30
2019-05-11T06:40:47.778Z,17.90
2019-05-11T06:43:17.487Z,17.13
2019-05-11T06:45:47.332Z,16.33
2019-05-11T06:48:17.159Z,16.73
2019-05-11T06:50:46.835Z,16.63
2019-05-11T06:53:16.662Z,17.50
2019-05-11T06:55:46.371Z,17.33
2019-05-11T06:58:16.136Z,18.17
2019-05-11T07:00:45.979Z,18.37
2019-05-11T07:03:15.693Z,17.30
2019-05-11T07:05:46.162Z,18.47
2019-05-11T07:08:15.982Z,18.97
2019-05-11T07:10:45.812Z,19.07
2019-05-11T07:13:15.567Z,17.57
2019-05-11T07:15:45.403Z,17.47
2019-05-11T07:18:16.550Z,18.17
2019-05-11T07:20:50.368Z,16.23
2019-05-11T07:23:18.013Z,16.53
2019-05-11T07:25:48.280Z,17.00
2019-05-11T07:28:18.157Z,18.70
2019-05-11T07:30:47.913Z,17.20
2019-05-11T07:33:18.299Z,12.97
2019-05-11T07:35:48.388Z,13.07
2019-05-11T07:38:18.491Z,10.37
2019-05-11T07:40:48.481Z,9.83
2019-05-11T07:43:18.946Z,9.67
2019-05-11T07:45:48.848Z,9.73
2019-05-11T07:48:18.795Z,10.50
2019-05-11T07:50:48.990Z,9.60
2019-05-11T07:53:18.855Z,9.50
2019-05-11T07:55:48.669Z,10.97
2019-05-11T07:58:20.435Z,10.73
2019-05-11T08:00:50.119Z,10.03
2019-05-11T08:03:19.932Z,9.80
2019-05-11T08:05:49.685Z,10.67
2019-05-11T08:08:19.506Z,9.37
2019-05-11T08:10:49.259Z,10.63
2019-05-11T08:13:18.993Z,10.03
2019-05-11T08:15:48.949Z,11.07
2019-05-11T08:18:19.059Z,14.43
2019-05-11T08:20:48.811Z,14.43
2019-05-11T08:23:18.514Z,16.60
2019-05-11T08:25:48.740Z,15.80
2019-05-11T08:28:20.867Z,16.17
2019-05-11T08:30:50.645Z,16.10
2019-05-11T08:33:20.461Z,17.93
2019-05-11T08:35:50.193Z,16.47
2019-05-11T08:38:19.981Z,15.97
2019-05-11T08:40:49.723Z,16.77
2019-05-11T08:43:19.460Z,15.07
2019-05-11T08:45:49.239Z,16.53
2019-05-11T08:48:19.051Z,12.30
2019-05-11T08:50:49.019Z,12.47
2019-05-11T08:53:19.240Z,12.67
2019-05-11T08:55:49.025Z,11.80
2019-05-11T08:58:19.576Z,11.70
2019-05-11T09:00:50.518Z,8.80
2019-05-11T09:03:20.230Z,8.27
2019-05-11T09:05:49.958Z,7.93
2019-05-11T09:08:19.734Z,8.17
2019-05-11T09:10:49.437Z,7.80
2019-05-11T09:13:19.144Z,8.73
2019-05-11T09:15:48.942Z,9.73
2019-05-11T09:18:18.918Z,9.57
2019-05-11T09:20:48.824Z,8.47
2019-05-11T09:23:33.782Z,10.70
2019-05-11T09:25:51.645Z,10.33
2019-05-11T09:28:21.365Z,11.57
2019-05-11T09:30:51.075Z,10.43
2019-05-11T09:33:20.942Z,9.80
2019-05-11T09:35:53.369Z,8.83
2019-05-11T09:38:21.979Z,9.37
2019-05-11T09:40:51.733Z,9.80
2019-05-11T09:43:21.485Z,9.53
2019-05-11T09:45:51.866Z,9.77
2019-05-11T09:48:22.122Z,10.03
2019-05-11T09:50:51.875Z,9.97
2019-05-11T09:53:21.654Z,9.67
2019-05-11T09:55:51.409Z,11.10
2019-05-11T09:58:21.149Z,12.10
2019-05-11T10:00:50.939Z,12.67
2019-05-11T10:03:20.668Z,10.70
2019-05-11T10:05:50.430Z,9.70
2019-05-11T10:08:20.129Z,11.17
2019-05-11T10:10:49.835Z,9.73
2019-05-11T10:13:19.543Z,8.43
2019-05-11T10:16:03.428Z,8.37
2019-05-11T10:18:24.080Z,8.90
2019-05-11T10:20:52.608Z,9.23
2019-05-11T10:23:22.378Z,9.53
2019-05-11T10:25:52.153Z,9.37
2019-05-11T10:28:21.899Z,12.23
2019-05-11T10:30:51.618Z,13.43
2019-05-11T10:33:21.344Z,13.37
2019-05-11T10:35:51.111Z,14.30
2019-05-11T10:38:20.829Z,14.40
2019-05-11T10:40:50.538Z,16.87
2019-05-11T10:43:20.298Z,18.83
2019-05-11T10:45:50.998Z,19.07
2019-05-11T10:48:20.793Z,19.43
2019-05-11T10:50:50.515Z,19.93
2019-05-11T10:53:20.242Z,20.50
2019-05-11T10:55:49.995Z,22.07
2019-05-11T10:58:19.682Z,22.03
2019-05-11T11:00:49.584Z,22.57
2019-05-11T11:03:19.327Z,22.07
2019-05-11T11:05:49.052Z,22.03
2019-05-11T11:08:18.802Z,21.63
2019-05-11T11:10:48.600Z,19.37
2019-05-11T11:13:18.946Z,18.20
2019-05-11T11:15:49.181Z,21.80
2019-05-11T11:18:19.082Z,20.23
2019-05-11T11:20:49.063Z,21.13
2019-05-11T11:23:18.980Z,20.77
2019-05-11T11:25:48.662Z,23.43
2019-05-11T11:28:18.512Z,21.27
2019-05-11T11:30:48.265Z,19.83
2019-05-11T11:33:18.459Z,20.30
2019-05-11T11:35:48.405Z,20.37
2019-05-11T11:38:18.300Z,19.80
2019-05-11T11:40:48.269Z,18.57
2019-05-11T11:43:18.536Z,18.40
2019-05-11T11:45:48.560Z,16.87
2019-05-11T11:48:19.003Z,16.33
2019-05-11T11:50:49.032Z,15.20
2019-05-11T11:53:18.926Z,16.37
2019-05-11T11:55:48.721Z,15.27
2019-05-11T11:58:23.512Z,13.73
2019-05-11T12:00:49.821Z,13.53
2019-05-11T12:03:19.619Z,12.37
2019-05-11T12:05:49.344Z,12.80
2019-05-11T12:08:19.620Z,12.03
2019-05-11T12:10:50.045Z,11.47
2019-05-11T12:13:19.759Z,11.60
2019-05-11T12:15:50.380Z,11.80
2019-05-11T12:18:20.176Z,10.20
2019-05-11T12:20:49.923Z,10.17
2019-05-11T12:23:19.747Z,10.30
2019-05-11T12:25:49.462Z,11.33
2019-05-11T12:28:19.196Z,10.87
2019-05-11T12:30:48.919Z,12.30
2019-05-11T12:33:18.889Z,10.40
2019-05-11T12:35:49.111Z,9.60
2019-05-11T12:38:18.789Z,11.27
2019-05-11T12:40:48.576Z,11.13
2019-05-11T12:43:18.971Z,10.20
2019-05-11T12:45:49.644Z,9.50
2019-05-11T12:48:19.432Z,10.03
2019-05-11T12:50:49.166Z,10.33
2019-05-11T12:53:18.850Z,11.23
2019-05-11T12:55:48.633Z,10.27
2019-05-11T12:58:18.518Z,10.17
2019-05-11T13:00:48.268Z,9.77
2019-05-11T13:03:18.728Z,9.40
2019-05-11T13:05:48.984Z,9.87
2019-05-11T13:08:18.737Z,10.37
2019-05-11T13:10:51.620Z,9.80
2019-05-11T13:13:21.322Z,10.00
2019-05-11T13:15:51.072Z,9.57
2019-05-11T13:18:20.891Z,8.97
2019-05-11T13:20:50.607Z,9.40
2019-05-11T13:23:20.429Z,10.10
2019-05-11T13:25:50.120Z,10.07
2019-05-11T13:28:19.853Z,9.40
2019-05-11T13:30:51.028Z,10.13
2019-05-11T13:33:20.784Z,8.77
2019-05-11T13:35:53.092Z,8.30
2019-05-11T13:38:22.857Z,9.67
2019-05-11T13:40:52.554Z,8.70
2019-05-11T13:43:22.329Z,8.77
2019-05-11T13:45:52.159Z,9.33
2019-05-11T13:48:21.931Z,9.20
2019-05-11T13:50:51.885Z,10.37
2019-05-11T13:53:21.628Z,8.37
2019-05-11T13:55:51.400Z,10.50
2019-05-11T13:58:21.169Z,8.57
2019-05-11T14:00:51.011Z,8.77
2019-05-11T14:03:20.759Z,10.67
2019-05-11T14:05:53.019Z,8.03
2019-05-11T14:08:22.750Z,8.70
2019-05-11T14:10:52.504Z,9.83
2019-05-11T14:13:22.280Z,8.97
2019-05-11T14:15:52.061Z,8.50
2019-05-11T14:18:21.824Z,8.47
2019-05-11T14:20:51.562Z,8.17
2019-05-11T14:23:21.297Z,8.93
2019-05-11T14:25:51.030Z,8.93
2019-05-11T14:28:20.869Z,8.40
2019-05-11T14:30:50.786Z,7.67
2019-05-11T14:33:20.540Z,8.83
2019-05-11T14:35:50.269Z,8.27
2019-05-11T14:38:20.021Z,7.97
2019-05-11T14:40:49.772Z,8.50
2019-05-11T14:43:19.546Z,8.10
2019-05-11T14:45:49.253Z,7.93
2019-05-11T14:48:26.237Z,7.73
2019-05-11T14:50:50.354Z,7.13
2019-05-11T14:53:20.091Z,8.70
2019-05-11T14:55:49.893Z,8.67
2019-05-11T14:58:20.102Z,8.07
2019-05-11T15:00:50.293Z,7.30
2019-05-11T15:03:20.033Z,6.20
2019-05-11T15:05:49.911Z,6.70
2019-05-11T15:08:19.667Z,7.00
2019-05-11T15:10:49.346Z,7.13
2019-05-11T15:13:19.205Z,6.73
2019-05-11T15:15:48.997Z,7.40
2019-05-11T15:18:18.671Z,6.10
2019-05-11T15:20:48.405Z,7.43
2019-05-11T15:23:18.282Z,7.13
2019-05-11T15:25:48.780Z,6.00
2019-05-11T15:28:18.735Z,8.10
2019-05-11T15:30:48.508Z,5.70
2019-05-11T15:33:18.425Z,6.20
2019-05-11T15:35:48.612Z,7.07
2019-05-11T15:38:18.337Z,7.37
2019-05-11T15:40:48.730Z,5.93
2019-05-11T15:43:18.665Z,5.87
2019-05-11T15:45:48.821Z,6.33
2019-05-11T15:48:19.046Z,6.03
2019-05-11T15:50:48.876Z,5.27
2019-05-11T15:53:18.638Z,6.07
2019-05-11T15:55:48.370Z,5.77
2019-05-11T15:58:19.052Z,5.40
2019-05-11T16:00:49.619Z,6.17
2019-05-11T16:03:19.319Z,6.67
2019-05-11T16:05:49.028Z,5.80
2019-05-11T16:08:19.044Z,6.03
2019-05-11T16:10:49.105Z,6.03
2019-05-11T16:13:18.920Z,5.47
2019-05-11T16:15:48.668Z,5.57
2019-05-11T16:18:18.944Z,6.67
2019-05-11T16:20:50.273Z,6.23
2019-05-11T16:23:20.551Z,6.27
2019-05-11T16:25:50.335Z,6.80
2019-05-11T16:28:20.033Z,7.20
2019-05-11T16:30:49.760Z,6.23
2019-05-11T16:33:19.630Z,6.90
2019-05-11T16:35:49.350Z,7.60
2019-05-11T16:38:19.208Z,7.87
2019-05-11T16:40:48.966Z,7.70
2019-05-11T16:43:19.205Z,6.60
2019-05-11T16:45:51.135Z,6.10
2019-05-11T16:48:21.068Z,6.33
2019-05-11T16:50:50.785Z,5.90
2019-05-11T16:53:22.791Z,5.47
2019-05-11T16:55:52.562Z,5.90
2019-05-11T16:58:22.262Z,6.00
2019-05-11T17:00:51.958Z,5.43
2019-05-11T17:03:21.727Z,5.43
2019-05-11T17:05:51.440Z,5.60
2019-05-11T17:08:21.217Z,5.20
2019-05-11T17:10:59.199Z,6.43
2019-05-11T17:13:29.435Z,7.30
2019-05-11T17:15:59.189Z,6.83
2019-05-11T17:18:29.039Z,6.47
2019-05-11T17:20:58.934Z,7.47
2019-05-11T17:23:30.755Z,6.13
2019-05-11T17:26:00.179Z,5.70
2019-05-11T17:28:29.887Z,6.00
2019-05-11T17:31:02.800Z,5.67
2019-05-11T17:33:31.017Z,7.97
2019-05-11T17:36:00.873Z,6.97
2019-05-11T17:38:30.632Z,5.37
2019-05-11T17:41:00.397Z,5.90
2019-05-11T17:43:30.100Z,5.30
2019-05-11T17:45:59.865Z,5.20
2019-05-11T17:48:29.591Z,5.50
2019-05-11T17:50:59.334Z,5.43
2019-05-11T17:53:29.104Z,5.83
2019-05-11T17:55:58.871Z,5.20
2019-05-11T17:58:28.555Z,5.43
2019-05-11T18:00:58.966Z,5.30
2019-05-11T18:03:29.128Z,5.87
2019-05-11T18:05:59.128Z,6.23
2019-05-11T18:08:30.883Z,6.93
2019-05-11T18:11:00.581Z,12.63
2019-05-11T18:13:30.318Z,12.27
2019-05-11T18:16:03.017Z,11.83
2019-05-11T18:18:33.652Z,12.07
2019-05-11T18:21:03.423Z,14.80
2019-05-11T18:23:33.145Z,11.90
2019-05-11T18:26:02.934Z,10.40
2019-05-11T18:28:32.680Z,10.90
2019-05-11T18:31:02.430Z,11.87
2019-05-11T18:33:32.314Z,9.33
2019-05-11T18:36:02.244Z,8.40
2019-05-11T18:38:31.968Z,8.40
2019-05-11T18:41:01.714Z,9.53
2019-05-11T18:43:31.530Z,8.43
2019-05-11T18:46:01.278Z,8.77
2019-05-11T18:48:31.429Z,9.00
2019-05-11T18:51:01.237Z,9.70
2019-05-11T18:53:30.965Z,9.37
2019-05-11T18:56:00.685Z,10.57
2019-05-11T18:58:30.476Z,11.83
2019-05-11T19:01:00.306Z,11.00
2019-05-11T19:03:30.020Z,10.73
2019-05-11T19:05:59.824Z,11.80
2019-05-11T19:08:29.626Z,13.83
2019-05-11T19:10:59.328Z,12.23
2019-05-11T19:13:29.242Z,11.77
2019-05-11T19:15:58.986Z,10.97
2019-05-11T19:18:28.772Z,11.10
2019-05-11T19:20:58.859Z,11.27
2019-05-11T19:23:28.981Z,16.87
2019-05-11T19:25:59.168Z,16.43
2019-05-11T19:28:28.985Z,15.67
2019-05-11T19:30:59.292Z,18.93
2019-05-11T19:33:29.238Z,22.40
2019-05-11T19:35:58.960Z,19.67
2019-05-11T19:38:28.840Z,27.20
2019-05-11T19:41:00.585Z,28.73
2019-05-11T19:43:30.348Z,34.17
2019-05-11T19:46:00.068Z,36.70
2019-05-11T19:48:30.097Z,41.27
2019-05-11T19:51:07.483Z,46.57
2019-05-11T19:53:31.212Z,44.20
2019-05-11T19:56:00.958Z,43.93
2019-05-11T19:58:30.687Z,34.67
2019-05-11T20:01:00.399Z,25.17
2019-05-11T20:03:30.907Z,35.30
2019-05-11T20:06:00.617Z,65.33
2019-05-11T20:08:30.357Z,75.27
2019-05-11T20:11:00.136Z,69.97
2019-05-11T20:13:30.020Z,52.80
2019-05-11T20:16:00.209Z,39.73
2019-05-11T20:18:29.955Z,38.03
2019-05-11T20:20:59.747Z,45.17
2019-05-11T20:23:29.556Z,47.10
2019-05-11T20:25:59.238Z,44.43
2019-05-11T20:28:29.018Z,40.23
2019-05-11T20:30:58.945Z,29.27
2019-05-11T20:33:28.674Z,20.83
2019-05-11T20:35:58.488Z,17.30
2019-05-11T20:38:28.316Z,16.47
2019-05-11T20:40:58.033Z,17.10
2019-05-11T20:43:28.003Z,17.57
2019-05-11T20:45:58.045Z,17.80
2019-05-11T20:48:27.934Z,19.97
2019-05-11T20:50:58.339Z,24.97
2019-05-11T20:53:28.719Z,30.30
2019-05-11T20:55:58.852Z,26.53
2019-05-11T20:58:30.161Z,22.93
2019-05-11T21:00:59.927Z,22.37
2019-05-11T21:03:29.667Z,23.17
2019-05-11T21:05:59.422Z,22.70
2019-05-11T21:08:29.200Z,23.00
2019-05-11T21:10:58.955Z,23.77
2019-05-11T21:13:28.735Z,22.83
2019-05-11T21:15:59.233Z,21.20
2019-05-11T21:18:29.232Z,22.37
2019-05-11T21:20:59.046Z,22.53
2019-05-11T21:23:29.101Z,23.30
2019-05-11T21:25:59.210Z,23.67
2019-05-11T21:28:30.678Z,24.73
2019-05-11T21:31:00.367Z,21.43
2019-05-11T21:33:30.109Z,21.97
2019-05-11T21:36:00.807Z,23.13
2019-05-11T21:38:31.829Z,24.13
2019-05-11T21:41:01.853Z,21.90
2019-05-11T21:43:31.587Z,21.33
2019-05-11T21:46:01.478Z,22.20
2019-05-11T21:48:31.631Z,22.23
2019-05-11T21:51:01.443Z,23.23
2019-05-11T21:53:31.245Z,22.30
2019-05-11T21:56:01.035Z,20.87
2019-05-11T21:58:31.359Z,22.10
2019-05-11T22:01:01.070Z,22.23
2019-05-11T22:03:30.967Z,21.37
2019-05-11T22:06:00.680Z,21.00
2019-05-11T22:08:30.509Z,21.10
2019-05-11T22:11:00.252Z,20.77
2019-05-11T22:13:30.041Z,21.60
2019-05-11T22:15:59.796Z,20.20
2019-05-11T22:18:31.368Z,21.43
2019-05-11T22:21:01.169Z,21.07
2019-05-11T22:23:32.757Z,21.80
2019-05-11T22:26:02.510Z,22.57
2019-05-11T22:28:32.846Z,23.40
2019-05-11T22:31:02.567Z,22.03
2019-05-11T22:33:32.381Z,22.87
2019-05-11T22:36:02.120Z,22.30
2019-05-11T22:38:32.869Z,23.10
2019-05-11T22:41:02.725Z,23.83
2019-05-11T22:43:32.447Z,24.23
2019-05-11T22:46:02.148Z,24.03
2019-05-11T22:48:31.917Z,23.90
2019-05-11T22:51:01.651Z,23.70
2019-05-11T22:53:43.929Z,24.03
2019-05-11T22:56:03.855Z,23.03
2019-05-11T22:58:33.652Z,22.77
2019-05-11T23:01:03.377Z,23.50
2019-05-11T23:03:33.155Z,23.37
2019-05-11T23:06:02.896Z,21.83
2019-05-11T23:08:32.634Z,20.97
2019-05-11T23:11:02.368Z,20.43
2019-05-11T23:13:32.136Z,21.37
2019-05-11T23:16:01.876Z,20.73
2019-05-11T23:18:31.575Z,19.70
2019-05-11T23:21:01.339Z,20.37
2019-05-11T23:23:31.040Z,20.53
2019-05-11T23:26:00.835Z,19.57
2019-05-11T23:28:30.601Z,19.43
2019-05-11T23:31:00.304Z,19.83
2019-05-11T23:33:30.024Z,19.10
2019-05-11T23:35:59.743Z,20.80
2019-05-11T23:38:29.475Z,19.63
2019-05-11T23:40:59.263Z,19.00
2019-05-11T23:43:30.082Z,18.43
2019-05-11T23:45:59.899Z,18.83
2019-05-11T23:48:29.615Z,18.13
2019-05-11T23:50:59.371Z,18.30
2019-05-11T23:53:29.155Z,18.43
2019-05-11T23:55:58.851Z,17.40
2019-05-11T23:58:28.596Z,18.60
